TimePST,TemperatureF,Dew PointF,Humidity,Sea Level PressureIn,VisibilityMPH,Wind Direction,Wind SpeedMPH,Gust SpeedMPH,PrecipitationIn,Events,Conditions,WindDirDegrees,DateUTC
12:15 AM,26.6,15.8,64,30.08,10.0,Calm,Calm,-,N/A,,Clear,0,2014-01-04 08:15:00
12:35 AM,24.8,15.8,69,30.08,10.0,Calm,Calm,-,N/A,,Clear,0,2014-01-04 08:35:00
12:55 AM,23.0,15.8,74,30.08,10.0,South,4.6,-,N/A,,Clear,180,2014-01-04 08:55:00
1:15 AM,19.4,12.2,74,30.08,10.0,Calm,Calm,-,N/A,,Clear,0,2014-01-04 09:15:00
1:35 AM,19.4,12.2,74,30.08,10.0,North,3.5,-,N/A,,Clear,10,2014-01-04 09:35:00
1:55 AM,21.2,14.0,74,30.09,10.0,WNW,3.5,-,N/A,,Clear,290,2014-01-04 09:55:00
2:15 AM,17.6,10.4,73,30.08,10.0,NW,4.6,-,N/A,,Clear,320,2014-01-04 10:15:00
2:35 AM,17.6,12.2,79,30.08,10.0,Calm,Calm,-,N/A,,Clear,0,2014-01-04 10:35:00
2:55 AM,19.4,14.0,80,30.08,10.0,Calm,Calm,-,N/A,,Clear,0,2014-01-04 10:55:00
3:15 AM,17.6,12.2,79,30.08,10.0,Calm,Calm,-,N/A,,Clear,0,2014-01-04 11:15:00
3:35 AM,15.8,10.4,79,30.07,10.0,Calm,Calm,-,N/A,,Clear,0,2014-01-04 11:35:00
3:55 AM,15.8,10.4,79,30.08,10.0,Calm,Calm,-,N/A,,Clear,0,2014-01-04 11:55:00
4:15 AM,19.4,12.2,74,30.07,10.0,Calm,Calm,-,N/A,,Clear,0,2014-01-04 12:15:00
4:35 AM,14.0,8.6,79,30.07,10.0,North,4.6,-,N/A,,Clear,350,2014-01-04 12:35:00
4:55 AM,12.2,8.6,85,30.07,10.0,Calm,Calm,-,N/A,,Clear,0,2014-01-04 12:55:00
5:15 AM,17.6,12.2,79,30.07,10.0,Calm,Calm,-,N/A,,Clear,0,2014-01-04 13:15:00
5:35 AM,15.8,10.4,79,30.07,10.0,Calm,Calm,-,N/A,,Clear,0,2014-01-04 13:35:00
5:55 AM,12.2,6.8,79,30.08,10.0,Calm,Calm,-,N/A,,Clear,0,2014-01-04 13:55:00
6:15 AM,17.6,12.2,79,30.09,10.0,Calm,Calm,-,N/A,,Clear,0,2014-01-04 14:15:00
6:35 AM,15.8,10.4,79,30.08,10.0,Calm,Calm,-,N/A,,Clear,0,2014-01-04 14:35:00
6:55 AM,8.6,6.8,92,30.08,10.0,Calm,Calm,-,N/A,,Clear,0,2014-01-04 14:55:00
7:15 AM,14.0,8.6,79,30.09,10.0,Calm,Calm,-,N/A,,Clear,0,2014-01-04 15:15:00
7:35 AM,12.2,8.6,85,30.10,10.0,Calm,Calm,-,N/A,,Clear,0,2014-01-04 15:35:00
7:55 AM,14.0,8.6,79,30.11,10.0,Calm,Calm,-,N/A,,Clear,0,2014-01-04 15:55:00
8:15 AM,19.4,12.2,74,30.13,10.0,Calm,Calm,-,N/A,,Clear,0,2014-01-04 16:15:00
8:35 AM,28.4,17.6,64,30.13,10.0,West,9.2,-,N/A,,Clear,270,2014-01-04 16:35:00
8:55 AM,41.0,19.4,42,30.13,10.0,Calm,Calm,-,N/A,,Clear,0,2014-01-04 16:55:00
9:15 AM,42.8,17.6,36,30.13,10.0,NW,5.8,-,N/A,,Clear,320,2014-01-04 17:15:00
9:35 AM,44.6,15.8,31,30.14,10.0,Calm,Calm,-,N/A,,Clear,0,2014-01-04 17:35:00
9:55 AM,46.4,15.8,29,30.15,10.0,WSW,4.6,-,N/A,,Clear,250,2014-01-04 17:55:00
10:15 AM,48.2,15.8,27,30.15,10.0,West,9.2,-,N/A,,Clear,260,2014-01-04 18:15:00
10:35 AM,50.0,14.0,24,30.16,10.0,NNW,13.8,19.6,N/A,,Clear,340,2014-01-04 18:35:00
10:55 AM,48.2,14.0,25,30.16,10.0,NW,11.5,18.4,N/A,,Clear,320,2014-01-04 18:55:00
11:15 AM,50.0,14.0,24,30.16,10.0,NNW,11.5,18.4,N/A,,Clear,340,2014-01-04 19:15:00
11:35 AM,50.0,15.8,26,30.16,10.0,North,18.4,23.0,N/A,,Clear,350,2014-01-04 19:35:00
11:55 AM,48.2,14.0,25,30.16,10.0,NNW,13.8,18.4,N/A,,Clear,330,2014-01-04 19:55:00
12:15 PM,50.0,14.0,24,30.18,10.0,NNW,13.8,23.0,N/A,,Clear,330,2014-01-04 20:15:00
12:55 PM,48.2,10.4,22,30.19,10.0,WNW,15.0,-,N/A,,Clear,290,2014-01-04 20:55:00
1:15 PM,48.2,10.4,22,30.18,10.0,NW,10.4,-,N/A,,Clear,320,2014-01-04 21:15:00
1:35 PM,48.2,10.4,22,30.19,10.0,West,10.4,-,N/A,,Clear,270,2014-01-04 21:35:00
1:55 PM,50.0,6.8,17,30.19,10.0,NW,12.7,-,N/A,,Clear,310,2014-01-04 21:55:00
2:15 PM,48.2,3.2,16,30.20,10.0,WNW,13.8,-,N/A,,Clear,300,2014-01-04 22:15:00
2:35 PM,48.2,1.4,15,30.20,10.0,WNW,11.5,-,N/A,,Clear,300,2014-01-04 22:35:00
2:55 PM,48.2,3.2,16,30.20,10.0,NNW,9.2,-,N/A,,Clear,330,2014-01-04 22:55:00
3:15 PM,48.2,3.2,16,30.22,10.0,WNW,9.2,-,N/A,,Clear,290,2014-01-04 23:15:00
3:55 PM,42.8,1.4,18,30.23,10.0,West,8.1,-,N/A,,Clear,260,2014-01-04 23:55:00
4:15 PM,39.2,1.4,21,30.23,10.0,West,10.4,-,N/A,,Clear,270,2014-01-05 00:15:00
4:35 PM,37.4,1.4,22,30.23,10.0,West,9.2,-,N/A,,Clear,260,2014-01-05 00:35:00
4:55 PM,37.4,1.4,22,30.23,10.0,West,10.4,-,N/A,,Clear,260,2014-01-05 00:55:00
5:15 PM,35.6,1.4,24,30.24,10.0,WSW,5.8,-,N/A,,Clear,250,2014-01-05 01:15:00
5:35 PM,32.0,-0.4,25,30.24,10.0,North,4.6,-,N/A,,Clear,10,2014-01-05 01:35:00
5:55 PM,30.2,-0.4,27,30.24,10.0,Calm,Calm,-,N/A,,Clear,0,2014-01-05 01:55:00
6:15 PM,28.4,-2.2,27,30.24,10.0,WNW,4.6,-,N/A,,Clear,300,2014-01-05 02:15:00
6:35 PM,26.6,1.4,34,30.24,10.0,Calm,Calm,-,N/A,,Clear,0,2014-01-05 02:35:00
6:55 PM,26.6,1.4,34,30.25,10.0,Calm,Calm,-,N/A,,Clear,0,2014-01-05 02:55:00
7:15 PM,24.8,3.2,40,30.25,10.0,Calm,Calm,-,N/A,,Clear,0,2014-01-05 03:15:00
7:35 PM,24.8,1.4,36,30.25,10.0,Calm,Calm,-,N/A,,Clear,0,2014-01-05 03:35:00
7:55 PM,24.8,1.4,36,30.25,10.0,Calm,Calm,-,N/A,,Clear,0,2014-01-05 03:55:00
8:15 PM,24.8,5.0,43,30.26,10.0,Calm,Calm,-,N/A,,Clear,0,2014-01-05 04:15:00
8:35 PM,24.8,3.2,40,30.25,10.0,WNW,3.5,-,N/A,,Clear,290,2014-01-05 04:35:00
8:55 PM,24.8,3.2,40,30.25,10.0,NW,3.5,-,N/A,,Clear,320,2014-01-05 04:55:00
9:15 PM,23.0,3.2,43,30.25,10.0,Calm,Calm,-,N/A,,Clear,0,2014-01-05 05:15:00
9:35 PM,21.2,3.2,46,30.25,10.0,North,4.6,-,N/A,,Clear,360,2014-01-05 05:35:00
9:55 PM,21.2,1.4,42,30.25,10.0,NNW,3.5,-,N/A,,Clear,340,2014-01-05 05:55:00
10:15 PM,21.2,1.4,42,30.25,10.0,WNW,5.8,-,N/A,,Clear,300,2014-01-05 06:15:00
10:35 PM,23.0,-0.4,36,30.25,10.0,Calm,Calm,-,N/A,,Clear,0,2014-01-05 06:35:00
10:55 PM,21.2,-2.2,36,30.25,10.0,North,3.5,-,N/A,,Clear,10,2014-01-05 06:55:00
11:15 PM,21.2,-4.0,33,30.25,10.0,Calm,Calm,-,N/A,,Clear,0,2014-01-05 07:15:00
11:35 PM,23.0,-2.2,33,30.26,10.0,West,10.4,-,N/A,,Clear,280,2014-01-05 07:35:00
11:55 PM,26.6,-2.2,29,30.26,10.0,West,13.8,-,N/A,,Clear,270,2014-01-05 07:55:00